sensor_id;sensor_type;location;lat;lon;timestamp;temperature;humidity
74617;DHT22;63123;50.906;4.198;2023-07-20T00:01:15;21.10;63.90
74617;DHT22;63123;50.906;4.198;2023-07-20T00:03:41;21.10;63.90
74617;DHT22;63123;50.906;4.198;2023-07-20T00:06:07;21.10;64.00
74617;DHT22;63123;50.906;4.198;2023-07-20T00:08:32;21.10;63.90
74617;DHT22;63123;50.906;4.198;2023-07-20T00:10:58;21.10;64.00
74617;DHT22;63123;50.906;4.198;2023-07-20T00:13:24;21.10;63.90
74617;DHT22;63123;50.906;4.198;2023-07-20T00:15:50;21.10;63.90
74617;DHT22;63123;50.906;4.198;2023-07-20T00:18:16;21.10;63.90
74617;DHT22;63123;50.906;4.198;2023-07-20T00:20:42;21.10;64.00
74617;DHT22;63123;50.906;4.198;2023-07-20T00:23:07;21.10;63.90
74617;DHT22;63123;50.906;4.198;2023-07-20T00:25:34;21.10;63.90
74617;DHT22;63123;50.906;4.198;2023-07-20T00:27:59;21.10;64.00
74617;DHT22;63123;50.906;4.198;2023-07-20T00:30:25;21.10;64.00
74617;DHT22;63123;50.906;4.198;2023-07-20T00:32:51;21.10;64.00
74617;DHT22;63123;50.906;4.198;2023-07-20T00:35:16;21.10;64.00
74617;DHT22;63123;50.906;4.198;2023-07-20T00:37:42;21.10;64.00
74617;DHT22;63123;50.906;4.198;2023-07-20T00:40:08;21.10;64.00
74617;DHT22;63123;50.906;4.198;2023-07-20T00:42:34;21.10;64.00
74617;DHT22;63123;50.906;4.198;2023-07-20T00:44:59;21.20;64.10
74617;DHT22;63123;50.906;4.198;2023-07-20T00:47:26;21.10;64.00
74617;DHT22;63123;50.906;4.198;2023-07-20T00:49:52;21.10;64.00
74617;DHT22;63123;50.906;4.198;2023-07-20T00:52:19;21.10;64.00
74617;DHT22;63123;50.906;4.198;2023-07-20T00:54:46;21.10;64.00
74617;DHT22;63123;50.906;4.198;2023-07-20T00:57:14;21.10;64.00
74617;DHT22;63123;50.906;4.198;2023-07-20T00:59:40;21.10;64.00
74617;DHT22;63123;50.906;4.198;2023-07-20T01:02:05;21.10;64.10
74617;DHT22;63123;50.906;4.198;2023-07-20T01:04:31;21.10;64.10
74617;DHT22;63123;50.906;4.198;2023-07-20T01:07:03;21.10;64.10
74617;DHT22;63123;50.906;4.198;2023-07-20T01:10:02;21.10;64.00
74617;DHT22;63123;50.906;4.198;2023-07-20T01:12:42;21.10;64.00
74617;DHT22;63123;50.906;4.198;2023-07-20T01:15:08;21.10;64.00
74617;DHT22;63123;50.906;4.198;2023-07-20T01:17:35;21.10;64.10
74617;DHT22;63123;50.906;4.198;2023-07-20T01:20:01;21.10;64.10
74617;DHT22;63123;50.906;4.198;2023-07-20T01:28:48;21.10;64.10
74617;DHT22;63123;50.906;4.198;2023-07-20T01:33:49;21.10;64.10
74617;DHT22;63123;50.906;4.198;2023-07-20T01:36:18;21.10;64.10
74617;DHT22;63123;50.906;4.198;2023-07-20T01:38:44;21.10;64.10
74617;DHT22;63123;50.906;4.198;2023-07-20T01:41:10;21.10;64.10
74617;DHT22;63123;50.906;4.198;2023-07-20T01:43:36;21.10;64.10
74617;DHT22;63123;50.906;4.198;2023-07-20T01:46:02;21.10;64.10
74617;DHT22;63123;50.906;4.198;2023-07-20T01:48:27;21.10;64.10
74617;DHT22;63123;50.906;4.198;2023-07-20T01:50:53;21.10;64.20
74617;DHT22;63123;50.906;4.198;2023-07-20T01:53:20;21.10;64.10
74617;DHT22;63123;50.906;4.198;2023-07-20T01:55:45;21.10;64.20
74617;DHT22;63123;50.906;4.198;2023-07-20T01:58:11;21.10;64.20
74617;DHT22;63123;50.906;4.198;2023-07-20T02:00:37;21.10;64.20
74617;DHT22;63123;50.906;4.198;2023-07-20T02:03:04;21.10;64.10
74617;DHT22;63123;50.906;4.198;2023-07-20T02:05:29;21.10;64.20
74617;DHT22;63123;50.906;4.198;2023-07-20T02:07:55;21.10;64.20
74617;DHT22;63123;50.906;4.198;2023-07-20T02:10:21;21.10;64.40
74617;DHT22;63123;50.906;4.198;2023-07-20T02:12:46;21.10;64.20
74617;DHT22;63123;50.906;4.198;2023-07-20T02:15:13;21.10;64.20
74617;DHT22;63123;50.906;4.198;2023-07-20T02:17:41;21.10;64.20
74617;DHT22;63123;50.906;4.198;2023-07-20T02:20:07;21.10;64.20
74617;DHT22;63123;50.906;4.198;2023-07-20T02:22:39;21.10;64.20
74617;DHT22;63123;50.906;4.198;2023-07-20T02:25:06;21.10;64.20
74617;DHT22;63123;50.906;4.198;2023-07-20T02:27:33;21.10;64.20
74617;DHT22;63123;50.906;4.198;2023-07-20T02:29:58;21.10;64.30
74617;DHT22;63123;50.906;4.198;2023-07-20T02:32:24;21.10;64.20
74617;DHT22;63123;50.906;4.198;2023-07-20T02:34:50;21.10;64.20
74617;DHT22;63123;50.906;4.198;2023-07-20T02:37:16;21.10;64.30
74617;DHT22;63123;50.906;4.198;2023-07-20T02:39:42;21.10;64.20
74617;DHT22;63123;50.906;4.198;2023-07-20T02:42:08;21.10;64.20
74617;DHT22;63123;50.906;4.198;2023-07-20T02:44:33;21.10;64.30
74617;DHT22;63123;50.906;4.198;2023-07-20T02:46:59;21.20;64.30
74617;DHT22;63123;50.906;4.198;2023-07-20T02:49:25;21.10;64.20
74617;DHT22;63123;50.906;4.198;2023-07-20T02:51:50;21.10;64.20
74617;DHT22;63123;50.906;4.198;2023-07-20T02:54:16;21.10;64.30
74617;DHT22;63123;50.906;4.198;2023-07-20T02:56:41;21.10;64.30
74617;DHT22;63123;50.906;4.198;2023-07-20T02:59:07;21.10;64.30
74617;DHT22;63123;50.906;4.198;2023-07-20T03:01:33;21.10;64.30
74617;DHT22;63123;50.906;4.198;2023-07-20T03:03:59;21.20;64.40
74617;DHT22;63123;50.906;4.198;2023-07-20T03:06:24;21.10;64.40
74617;DHT22;63123;50.906;4.198;2023-07-20T03:08:50;21.10;64.30
74617;DHT22;63123;50.906;4.198;2023-07-20T03:11:20;21.10;64.30
74617;DHT22;63123;50.906;4.198;2023-07-20T03:13:46;21.10;64.30
74617;DHT22;63123;50.906;4.198;2023-07-20T03:16:13;21.10;64.30
74617;DHT22;63123;50.906;4.198;2023-07-20T03:18:41;21.10;64.30
74617;DHT22;63123;50.906;4.198;2023-07-20T03:21:08;21.10;64.30
74617;DHT22;63123;50.906;4.198;2023-07-20T03:23:34;21.10;64.30
74617;DHT22;63123;50.906;4.198;2023-07-20T03:26:00;21.10;64.30
74617;DHT22;63123;50.906;4.198;2023-07-20T03:28:25;21.10;64.30
74617;DHT22;63123;50.906;4.198;2023-07-20T03:30:57;21.10;64.30
74617;DHT22;63123;50.906;4.198;2023-07-20T03:33:28;21.10;64.30
74617;DHT22;63123;50.906;4.198;2023-07-20T03:35:54;21.10;64.90
74617;DHT22;63123;50.906;4.198;2023-07-20T03:38:21;21.10;64.30
74617;DHT22;63123;50.906;4.198;2023-07-20T03:40:53;21.10;64.30
74617;DHT22;63123;50.906;4.198;2023-07-20T03:43:20;21.10;64.30
74617;DHT22;63123;50.906;4.198;2023-07-20T03:45:46;21.10;64.30
74617;DHT22;63123;50.906;4.198;2023-07-20T03:48:16;21.10;64.30
74617;DHT22;63123;50.906;4.198;2023-07-20T03:50:47;21.10;64.30
74617;DHT22;63123;50.906;4.198;2023-07-20T03:53:13;21.10;64.30
74617;DHT22;63123;50.906;4.198;2023-07-20T03:55:50;21.10;64.30
74617;DHT22;63123;50.906;4.198;2023-07-20T03:58:16;21.10;64.40
74617;DHT22;63123;50.906;4.198;2023-07-20T04:00:46;21.10;64.30
74617;DHT22;63123;50.906;4.198;2023-07-20T04:03:13;21.10;64.40
74617;DHT22;63123;50.906;4.198;2023-07-20T04:05:38;21.10;64.40
74617;DHT22;63123;50.906;4.198;2023-07-20T04:08:04;21.10;64.40
74617;DHT22;63123;50.906;4.198;2023-07-20T04:10:30;21.10;64.30
74617;DHT22;63123;50.906;4.198;2023-07-20T04:12:55;21.10;64.40
74617;DHT22;63123;50.906;4.198;2023-07-20T04:15:21;21.10;64.40
74617;DHT22;63123;50.906;4.198;2023-07-20T04:17:47;21.10;64.40
74617;DHT22;63123;50.906;4.198;2023-07-20T04:20:12;21.10;64.40
74617;DHT22;63123;50.906;4.198;2023-07-20T04:22:38;21.10;64.40
74617;DHT22;63123;50.906;4.198;2023-07-20T04:25:04;21.10;64.40
74617;DHT22;63123;50.906;4.198;2023-07-20T04:27:30;21.10;64.40
74617;DHT22;63123;50.906;4.198;2023-07-20T04:29:57;21.10;64.40
74617;DHT22;63123;50.906;4.198;2023-07-20T04:32:24;21.10;64.40
74617;DHT22;63123;50.906;4.198;2023-07-20T04:34:50;21.10;64.40
74617;DHT22;63123;50.906;4.198;2023-07-20T04:37:16;21.10;64.40
74617;DHT22;63123;50.906;4.198;2023-07-20T04:39:41;21.10;65.00
74617;DHT22;63123;50.906;4.198;2023-07-20T04:42:07;21.10;64.40
74617;DHT22;63123;50.906;4.198;2023-07-20T04:44:33;21.10;65.00
74617;DHT22;63123;50.906;4.198;2023-07-20T04:46:58;21.10;65.00
74617;DHT22;63123;50.906;4.198;2023-07-20T04:49:24;21.10;64.40
74617;DHT22;63123;50.906;4.198;2023-07-20T04:51:51;21.10;64.40
74617;DHT22;63123;50.906;4.198;2023-07-20T04:54:16;21.10;64.50
74617;DHT22;63123;50.906;4.198;2023-07-20T04:56:42;21.10;64.40
74617;DHT22;63123;50.906;4.198;2023-07-20T04:59:09;21.10;64.40
74617;DHT22;63123;50.906;4.198;2023-07-20T05:01:34;21.10;64.40
74617;DHT22;63123;50.906;4.198;2023-07-20T05:04:00;21.10;64.40
74617;DHT22;63123;50.906;4.198;2023-07-20T05:06:25;21.10;64.40
74617;DHT22;63123;50.906;4.198;2023-07-20T05:08:51;21.10;64.50
74617;DHT22;63123;50.906;4.198;2023-07-20T05:11:17;21.10;64.50
74617;DHT22;63123;50.906;4.198;2023-07-20T05:13:42;21.10;64.50
74617;DHT22;63123;50.906;4.198;2023-07-20T05:16:08;21.10;64.40
74617;DHT22;63123;50.906;4.198;2023-07-20T05:18:33;21.10;64.40
74617;DHT22;63123;50.906;4.198;2023-07-20T05:20:59;21.10;64.50
74617;DHT22;63123;50.906;4.198;2023-07-20T05:23:24;21.10;64.50
74617;DHT22;63123;50.906;4.198;2023-07-20T05:25:57;21.10;64.50
74617;DHT22;63123;50.906;4.198;2023-07-20T05:28:24;21.10;64.40
74617;DHT22;63123;50.906;4.198;2023-07-20T05:30:50;21.10;64.50
74617;DHT22;63123;50.906;4.198;2023-07-20T05:33:20;21.10;64.50
74617;DHT22;63123;50.906;4.198;2023-07-20T05:35:46;21.10;64.50
74617;DHT22;63123;50.906;4.198;2023-07-20T05:38:11;21.10;64.50
74617;DHT22;63123;50.906;4.198;2023-07-20T05:40:41;21.10;64.50
74617;DHT22;63123;50.906;4.198;2023-07-20T05:43:08;21.10;64.50
74617;DHT22;63123;50.906;4.198;2023-07-20T05:45:34;21.10;64.50
74617;DHT22;63123;50.906;4.198;2023-07-20T05:47:59;21.10;64.50
74617;DHT22;63123;50.906;4.198;2023-07-20T05:50:25;21.10;64.50
74617;DHT22;63123;50.906;4.198;2023-07-20T05:52:53;21.10;64.50
74617;DHT22;63123;50.906;4.198;2023-07-20T05:55:19;21.10;64.50
74617;DHT22;63123;50.906;4.198;2023-07-20T05:57:46;21.10;64.50
74617;DHT22;63123;50.906;4.198;2023-07-20T06:00:13;21.10;64.50
74617;DHT22;63123;50.906;4.198;2023-07-20T06:02:39;21.10;64.50
74617;DHT22;63123;50.906;4.198;2023-07-20T06:05:06;21.10;64.50
74617;DHT22;63123;50.906;4.198;2023-07-20T06:07:36;21.10;64.50
74617;DHT22;63123;50.906;4.198;2023-07-20T06:10:01;21.10;64.50
74617;DHT22;63123;50.906;4.198;2023-07-20T06:12:27;21.10;64.50
74617;DHT22;63123;50.906;4.198;2023-07-20T06:14:53;21.10;64.60
74617;DHT22;63123;50.906;4.198;2023-07-20T06:17:19;21.20;64.60
74617;DHT22;63123;50.906;4.198;2023-07-20T06:19:45;21.20;64.60
74617;DHT22;63123;50.906;4.198;2023-07-20T06:22:10;21.10;64.50
74617;DHT22;63123;50.906;4.198;2023-07-20T06:24:36;21.10;64.50
74617;DHT22;63123;50.906;4.198;2023-07-20T06:27:01;21.10;64.60
74617;DHT22;63123;50.906;4.198;2023-07-20T06:29:28;21.10;64.50
74617;DHT22;63123;50.906;4.198;2023-07-20T06:31:53;21.20;64.60
74617;DHT22;63123;50.906;4.198;2023-07-20T06:34:19;21.10;64.60
74617;DHT22;63123;50.906;4.198;2023-07-20T06:36:45;21.10;64.60
74617;DHT22;63123;50.906;4.198;2023-07-20T06:39:10;21.10;64.60
74617;DHT22;63123;50.906;4.198;2023-07-20T06:41:36;21.10;64.60
74617;DHT22;63123;50.906;4.198;2023-07-20T06:44:02;21.10;64.60
74617;DHT22;63123;50.906;4.198;2023-07-20T06:46:27;21.20;64.60
74617;DHT22;63123;50.906;4.198;2023-07-20T06:48:53;21.20;64.70
74617;DHT22;63123;50.906;4.198;2023-07-20T06:51:19;21.10;64.60
74617;DHT22;63123;50.906;4.198;2023-07-20T06:53:45;21.10;64.60
74617;DHT22;63123;50.906;4.198;2023-07-20T06:56:11;21.20;64.70
74617;DHT22;63123;50.906;4.198;2023-07-20T06:58:37;21.20;64.70
74617;DHT22;63123;50.906;4.198;2023-07-20T07:01:07;21.10;64.60
74617;DHT22;63123;50.906;4.198;2023-07-20T07:03:33;21.10;64.60
74617;DHT22;63123;50.906;4.198;2023-07-20T07:05:59;21.10;64.60
74617;DHT22;63123;50.906;4.198;2023-07-20T07:08:24;21.10;64.60
74617;DHT22;63123;50.906;4.198;2023-07-20T07:10:50;21.20;64.70
74617;DHT22;63123;50.906;4.198;2023-07-20T07:13:16;21.10;64.60
74617;DHT22;63123;50.906;4.198;2023-07-20T07:15:42;21.20;64.70
74617;DHT22;63123;50.906;4.198;2023-07-20T07:18:08;21.10;64.60
74617;DHT22;63123;50.906;4.198;2023-07-20T07:20:33;21.20;64.80
74617;DHT22;63123;50.906;4.198;2023-07-20T07:22:59;21.20;64.70
74617;DHT22;63123;50.906;4.198;2023-07-20T07:25:24;21.10;64.60
74617;DHT22;63123;50.906;4.198;2023-07-20T07:27:51;21.10;64.60
74617;DHT22;63123;50.906;4.198;2023-07-20T07:30:17;21.10;64.70
74617;DHT22;63123;50.906;4.198;2023-07-20T07:32:43;21.20;64.80
74617;DHT22;63123;50.906;4.198;2023-07-20T07:35:08;21.20;64.80
74617;DHT22;63123;50.906;4.198;2023-07-20T07:37:34;21.20;64.80
74617;DHT22;63123;50.906;4.198;2023-07-20T07:40:00;21.20;64.80
74617;DHT22;63123;50.906;4.198;2023-07-20T07:42:26;21.20;64.80
74617;DHT22;63123;50.906;4.198;2023-07-20T07:44:54;21.20;64.80
74617;DHT22;63123;50.906;4.198;2023-07-20T07:47:19;21.20;64.80
74617;DHT22;63123;50.906;4.198;2023-07-20T07:49:45;21.20;64.80
74617;DHT22;63123;50.906;4.198;2023-07-20T07:52:12;21.20;64.80
74617;DHT22;63123;50.906;4.198;2023-07-20T07:54:39;21.20;64.80
74617;DHT22;63123;50.906;4.198;2023-07-20T07:57:05;21.20;64.80
74617;DHT22;63123;50.906;4.198;2023-07-20T07:59:31;21.20;64.80
74617;DHT22;63123;50.906;4.198;2023-07-20T08:02:02;21.20;64.80
74617;DHT22;63123;50.906;4.198;2023-07-20T08:04:27;21.20;64.90
74617;DHT22;63123;50.906;4.198;2023-07-20T08:06:53;21.20;64.80
74617;DHT22;63123;50.906;4.198;2023-07-20T08:09:19;21.20;64.90
74617;DHT22;63123;50.906;4.198;2023-07-20T08:11:45;21.20;64.90
74617;DHT22;63123;50.906;4.198;2023-07-20T08:14:10;21.20;64.90
74617;DHT22;63123;50.906;4.198;2023-07-20T08:16:36;21.20;64.90
74617;DHT22;63123;50.906;4.198;2023-07-20T08:19:01;21.20;64.90
74617;DHT22;63123;50.906;4.198;2023-07-20T08:21:27;21.20;64.90
74617;DHT22;63123;50.906;4.198;2023-07-20T08:23:53;21.20;64.90
74617;DHT22;63123;50.906;4.198;2023-07-20T08:26:19;21.20;64.90
74617;DHT22;63123;50.906;4.198;2023-07-20T08:28:47;21.20;64.90
74617;DHT22;63123;50.906;4.198;2023-07-20T08:31:13;21.20;64.90
74617;DHT22;63123;50.906;4.198;2023-07-20T08:33:39;21.20;64.80
74617;DHT22;63123;50.906;4.198;2023-07-20T08:36:05;21.20;64.80
74617;DHT22;63123;50.906;4.198;2023-07-20T08:38:31;21.20;64.90
74617;DHT22;63123;50.906;4.198;2023-07-20T08:40:56;21.30;64.90
74617;DHT22;63123;50.906;4.198;2023-07-20T08:43:25;21.30;64.90
74617;DHT22;63123;50.906;4.198;2023-07-20T08:45:51;21.30;64.80
74617;DHT22;63123;50.906;4.198;2023-07-20T08:48:18;21.30;64.80
74617;DHT22;63123;50.906;4.198;2023-07-20T08:50:45;21.30;64.80
74617;DHT22;63123;50.906;4.198;2023-07-20T08:53:13;21.30;64.80
74617;DHT22;63123;50.906;4.198;2023-07-20T08:55:40;21.20;64.80
74617;DHT22;63123;50.906;4.198;2023-07-20T08:58:08;21.30;64.80
74617;DHT22;63123;50.906;4.198;2023-07-20T09:00:37;21.30;64.80
74617;DHT22;63123;50.906;4.198;2023-07-20T09:03:03;21.30;64.80
74617;DHT22;63123;50.906;4.198;2023-07-20T09:05:29;21.30;64.80
74617;DHT22;63123;50.906;4.198;2023-07-20T09:07:55;21.30;64.70
74617;DHT22;63123;50.906;4.198;2023-07-20T09:10:22;21.30;64.70
74617;DHT22;63123;50.906;4.198;2023-07-20T09:12:48;21.30;64.80
74617;DHT22;63123;50.906;4.198;2023-07-20T09:15:14;21.30;64.80
74617;DHT22;63123;50.906;4.198;2023-07-20T09:17:48;21.30;64.70
74617;DHT22;63123;50.906;4.198;2023-07-20T09:20:16;21.30;64.70
74617;DHT22;63123;50.906;4.198;2023-07-20T09:22:42;21.30;64.70
74617;DHT22;63123;50.906;4.198;2023-07-20T09:25:13;21.30;64.70
74617;DHT22;63123;50.906;4.198;2023-07-20T09:27:48;21.30;64.70
74617;DHT22;63123;50.906;4.198;2023-07-20T09:30:15;21.30;64.70
74617;DHT22;63123;50.906;4.198;2023-07-20T09:32:46;21.30;64.70
74617;DHT22;63123;50.906;4.198;2023-07-20T09:35:15;21.30;64.70
74617;DHT22;63123;50.906;4.198;2023-07-20T09:37:46;21.30;64.70
74617;DHT22;63123;50.906;4.198;2023-07-20T09:40:15;21.20;64.70
74617;DHT22;63123;50.906;4.198;2023-07-20T09:42:42;21.30;64.70
74617;DHT22;63123;50.906;4.198;2023-07-20T09:45:08;21.30;64.70
74617;DHT22;63123;50.906;4.198;2023-07-20T09:47:38;21.20;64.60
74617;DHT22;63123;50.906;4.198;2023-07-20T09:50:05;21.30;64.70
74617;DHT22;63123;50.906;4.198;2023-07-20T09:52:38;21.30;64.70
74617;DHT22;63123;50.906;4.198;2023-07-20T09:55:09;21.30;64.70
74617;DHT22;63123;50.906;4.198;2023-07-20T09:57:37;21.30;64.60
74617;DHT22;63123;50.906;4.198;2023-07-20T10:00:07;21.30;64.60
74617;DHT22;63123;50.906;4.198;2023-07-20T10:02:44;21.30;64.60
74617;DHT22;63123;50.906;4.198;2023-07-20T10:05:12;21.30;64.60
74617;DHT22;63123;50.906;4.198;2023-07-20T10:07:47;21.20;64.60
74617;DHT22;63123;50.906;4.198;2023-07-20T10:10:14;21.30;64.50
74617;DHT22;63123;50.906;4.198;2023-07-20T10:12:41;21.30;64.60
74617;DHT22;63123;50.906;4.198;2023-07-20T10:15:32;21.20;64.40
74617;DHT22;63123;50.906;4.198;2023-07-20T10:18:04;21.30;64.40
74617;DHT22;63123;50.906;4.198;2023-07-20T10:20:32;21.20;64.40
74617;DHT22;63123;50.906;4.198;2023-07-20T10:22:59;21.30;64.40
74617;DHT22;63123;50.906;4.198;2023-07-20T10:25:26;21.30;64.50
74617;DHT22;63123;50.906;4.198;2023-07-20T10:27:52;21.30;64.40
74617;DHT22;63123;50.906;4.198;2023-07-20T10:30:18;21.30;64.40
74617;DHT22;63123;50.906;4.198;2023-07-20T10:32:45;21.30;64.40
74617;DHT22;63123;50.906;4.198;2023-07-20T10:35:18;21.20;64.30
74617;DHT22;63123;50.906;4.198;2023-07-20T10:37:51;21.30;64.30
74617;DHT22;63123;50.906;4.198;2023-07-20T10:40:34;21.30;64.40
74617;DHT22;63123;50.906;4.198;2023-07-20T10:43:04;21.30;64.30
74617;DHT22;63123;50.906;4.198;2023-07-20T10:45:41;21.30;64.70
74617;DHT22;63123;50.906;4.198;2023-07-20T10:48:33;21.30;64.30
74617;DHT22;63123;50.906;4.198;2023-07-20T10:51:13;21.20;64.10
74617;DHT22;63123;50.906;4.198;2023-07-20T10:53:42;21.30;64.80
74617;DHT22;63123;50.906;4.198;2023-07-20T10:56:11;21.30;64.30
74617;DHT22;63123;50.906;4.198;2023-07-20T10:58:37;21.20;64.30
74617;DHT22;63123;50.906;4.198;2023-07-20T11:01:04;21.20;64.20
74617;DHT22;63123;50.906;4.198;2023-07-20T11:03:33;21.20;64.20
74617;DHT22;63123;50.906;4.198;2023-07-20T11:05:58;21.20;64.20
74617;DHT22;63123;50.906;4.198;2023-07-20T11:08:41;21.20;64.20
74617;DHT22;63123;50.906;4.198;2023-07-20T11:11:27;21.30;64.20
74617;DHT22;63123;50.906;4.198;2023-07-20T11:14:01;21.20;64.10
74617;DHT22;63123;50.906;4.198;2023-07-20T11:16:46;21.20;64.20
74617;DHT22;63123;50.906;4.198;2023-07-20T11:19:17;21.30;64.20
74617;DHT22;63123;50.906;4.198;2023-07-20T11:21:45;21.20;64.10
74617;DHT22;63123;50.906;4.198;2023-07-20T11:24:11;21.20;64.10
74617;DHT22;63123;50.906;4.198;2023-07-20T11:26:49;21.20;64.10
74617;DHT22;63123;50.906;4.198;2023-07-20T11:29:16;21.20;64.10
74617;DHT22;63123;50.906;4.198;2023-07-20T11:31:44;21.20;64.10
74617;DHT22;63123;50.906;4.198;2023-07-20T11:34:14;21.30;64.10
74617;DHT22;63123;50.906;4.198;2023-07-20T11:36:41;21.30;64.10
74617;DHT22;63123;50.906;4.198;2023-07-20T11:39:15;21.20;64.00
74617;DHT22;63123;50.906;4.198;2023-07-20T11:41:52;21.30;64.00
74617;DHT22;63123;50.906;4.198;2023-07-20T11:44:18;21.20;64.00
74617;DHT22;63123;50.906;4.198;2023-07-20T11:46:44;21.20;64.00
74617;DHT22;63123;50.906;4.198;2023-07-20T11:49:11;21.20;64.00
74617;DHT22;63123;50.906;4.198;2023-07-20T11:51:37;21.20;64.00
74617;DHT22;63123;50.906;4.198;2023-07-20T11:54:04;21.20;63.90
74617;DHT22;63123;50.906;4.198;2023-07-20T11:56:30;21.20;64.00
74617;DHT22;63123;50.906;4.198;2023-07-20T11:58:57;21.20;63.90
74617;DHT22;63123;50.906;4.198;2023-07-20T12:01:26;21.20;63.90
74617;DHT22;63123;50.906;4.198;2023-07-20T12:04:00;21.30;64.00
74617;DHT22;63123;50.906;4.198;2023-07-20T12:06:30;21.30;64.00
74617;DHT22;63123;50.906;4.198;2023-07-20T12:08:57;21.20;63.90
74617;DHT22;63123;50.906;4.198;2023-07-20T12:13:58;21.20;63.90
74617;DHT22;63123;50.906;4.198;2023-07-20T12:16:28;21.20;63.90
74617;DHT22;63123;50.906;4.198;2023-07-20T12:19:01;21.30;63.90
74617;DHT22;63123;50.906;4.198;2023-07-20T12:21:28;21.30;63.90
74617;DHT22;63123;50.906;4.198;2023-07-20T12:23:56;21.20;63.80
74617;DHT22;63123;50.906;4.198;2023-07-20T12:26:22;21.20;63.80
74617;DHT22;63123;50.906;4.198;2023-07-20T12:28:49;21.20;63.80
74617;DHT22;63123;50.906;4.198;2023-07-20T12:31:15;21.20;63.80
74617;DHT22;63123;50.906;4.198;2023-07-20T12:33:41;21.20;63.80
74617;DHT22;63123;50.906;4.198;2023-07-20T12:36:08;21.20;63.80
74617;DHT22;63123;50.906;4.198;2023-07-20T12:38:33;21.20;63.80
74617;DHT22;63123;50.906;4.198;2023-07-20T12:41:01;21.20;63.80
74617;DHT22;63123;50.906;4.198;2023-07-20T12:43:27;21.20;63.70
74617;DHT22;63123;50.906;4.198;2023-07-20T12:45:53;21.20;63.80
74617;DHT22;63123;50.906;4.198;2023-07-20T12:48:19;21.20;63.80
74617;DHT22;63123;50.906;4.198;2023-07-20T12:50:44;21.20;63.70
74617;DHT22;63123;50.906;4.198;2023-07-20T12:53:10;21.20;63.70
74617;DHT22;63123;50.906;4.198;2023-07-20T12:55:37;21.20;63.70
74617;DHT22;63123;50.906;4.198;2023-07-20T12:58:02;21.20;63.70
74617;DHT22;63123;50.906;4.198;2023-07-20T13:00:28;21.20;63.70
74617;DHT22;63123;50.906;4.198;2023-07-20T13:02:53;21.20;63.70
74617;DHT22;63123;50.906;4.198;2023-07-20T13:05:19;21.20;63.70
74617;DHT22;63123;50.906;4.198;2023-07-20T13:07:45;21.20;63.60
74617;DHT22;63123;50.906;4.198;2023-07-20T13:10:11;21.20;63.70
74617;DHT22;63123;50.906;4.198;2023-07-20T13:12:37;21.20;63.70
74617;DHT22;63123;50.906;4.198;2023-07-20T13:15:05;21.20;63.70
74617;DHT22;63123;50.906;4.198;2023-07-20T13:17:32;21.20;63.70
74617;DHT22;63123;50.906;4.198;2023-07-20T13:19:58;21.20;63.60
74617;DHT22;63123;50.906;4.198;2023-07-20T13:22:24;21.20;63.60
74617;DHT22;63123;50.906;4.198;2023-07-20T13:24:50;21.20;63.60
74617;DHT22;63123;50.906;4.198;2023-07-20T13:27:19;21.20;63.60
74617;DHT22;63123;50.906;4.198;2023-07-20T13:29:45;21.20;63.60
74617;DHT22;63123;50.906;4.198;2023-07-20T13:32:14;21.20;64.30
74617;DHT22;63123;50.906;4.198;2023-07-20T13:34:44;21.20;63.60
74617;DHT22;63123;50.906;4.198;2023-07-20T13:37:10;21.20;63.70
74617;DHT22;63123;50.906;4.198;2023-07-20T13:39:36;21.20;63.70
74617;DHT22;63123;50.906;4.198;2023-07-20T13:42:02;21.20;63.60
74617;DHT22;63123;50.906;4.198;2023-07-20T13:44:33;21.20;63.60
74617;DHT22;63123;50.906;4.198;2023-07-20T13:47:00;21.20;63.70
74617;DHT22;63123;50.906;4.198;2023-07-20T13:49:26;21.20;63.60
74617;DHT22;63123;50.906;4.198;2023-07-20T13:51:51;21.20;63.70
74617;DHT22;63123;50.906;4.198;2023-07-20T13:54:17;21.20;63.70
74617;DHT22;63123;50.906;4.198;2023-07-20T13:56:42;21.20;63.70
74617;DHT22;63123;50.906;4.198;2023-07-20T13:59:08;21.20;63.70
74617;DHT22;63123;50.906;4.198;2023-07-20T14:01:34;21.20;63.70
74617;DHT22;63123;50.906;4.198;2023-07-20T14:04:01;21.20;63.60
74617;DHT22;63123;50.906;4.198;2023-07-20T14:06:30;21.20;63.70
74617;DHT22;63123;50.906;4.198;2023-07-20T14:08:56;21.20;63.70
74617;DHT22;63123;50.906;4.198;2023-07-20T14:11:22;21.20;63.70
74617;DHT22;63123;50.906;4.198;2023-07-20T14:13:48;21.20;63.60
74617;DHT22;63123;50.906;4.198;2023-07-20T14:16:13;21.20;63.50
74617;DHT22;63123;50.906;4.198;2023-07-20T14:18:39;21.20;63.50
74617;DHT22;63123;50.906;4.198;2023-07-20T14:21:05;21.20;63.60
74617;DHT22;63123;50.906;4.198;2023-07-20T14:23:32;21.20;63.60
74617;DHT22;63123;50.906;4.198;2023-07-20T14:25:58;21.20;63.60
74617;DHT22;63123;50.906;4.198;2023-07-20T14:28:24;21.20;63.60
74617;DHT22;63123;50.906;4.198;2023-07-20T14:30:50;21.20;63.60
74617;DHT22;63123;50.906;4.198;2023-07-20T14:33:15;21.20;63.50
74617;DHT22;63123;50.906;4.198;2023-07-20T14:35:41;21.20;63.50
74617;DHT22;63123;50.906;4.198;2023-07-20T14:38:07;21.20;63.50
74617;DHT22;63123;50.906;4.198;2023-07-20T14:40:32;21.20;63.60
74617;DHT22;63123;50.906;4.198;2023-07-20T14:42:58;21.20;63.60
74617;DHT22;63123;50.906;4.198;2023-07-20T14:45:27;21.20;63.60
74617;DHT22;63123;50.906;4.198;2023-07-20T14:47:52;21.30;63.60
74617;DHT22;63123;50.906;4.198;2023-07-20T14:50:20;21.30;63.60
74617;DHT22;63123;50.906;4.198;2023-07-20T14:52:46;21.20;63.60
74617;DHT22;63123;50.906;4.198;2023-07-20T14:55:12;21.20;63.50
74617;DHT22;63123;50.906;4.198;2023-07-20T14:57:38;21.20;63.60
74617;DHT22;63123;50.906;4.198;2023-07-20T15:00:06;21.20;63.50
74617;DHT22;63123;50.906;4.198;2023-07-20T15:02:39;21.20;63.50
74617;DHT22;63123;50.906;4.198;2023-07-20T15:05:08;21.20;63.50
74617;DHT22;63123;50.906;4.198;2023-07-20T15:07:34;21.30;63.50
74617;DHT22;63123;50.906;4.198;2023-07-20T15:10:00;21.30;63.50
74617;DHT22;63123;50.906;4.198;2023-07-20T15:12:26;21.20;63.50
74617;DHT22;63123;50.906;4.198;2023-07-20T15:15:11;21.20;63.40
74617;DHT22;63123;50.906;4.198;2023-07-20T15:17:38;21.20;63.20
74617;DHT22;63123;50.906;4.198;2023-07-20T15:20:06;21.30;63.50
74617;DHT22;63123;50.906;4.198;2023-07-20T15:22:33;21.20;63.40
74617;DHT22;63123;50.906;4.198;2023-07-20T15:24:59;21.20;63.50
74617;DHT22;63123;50.906;4.198;2023-07-20T15:27:24;21.20;63.50
74617;DHT22;63123;50.906;4.198;2023-07-20T15:29:50;21.20;63.60
74617;DHT22;63123;50.906;4.198;2023-07-20T15:32:17;21.20;63.60
74617;DHT22;63123;50.906;4.198;2023-07-20T15:34:43;21.30;63.60
74617;DHT22;63123;50.906;4.198;2023-07-20T15:37:09;21.20;63.60
74617;DHT22;63123;50.906;4.198;2023-07-20T15:39:36;21.20;63.60
74617;DHT22;63123;50.906;4.198;2023-07-20T15:42:01;21.20;63.60